DAL3888 KORD-KMSP
Flight info
| Callsign | DAL3888 |
|---|---|
| Flight time | N/A |
| Altitude | 40000 |
| Route | PMPKN NEATO DLLAN RONIC KAMMA KKILR4 |
| Aircraft | B738/M-SDE2E3FGHIRWXY/LB1 |
Departure
| Time | 2026-05-04 23:15 |
|---|---|
| Airport | Chicago O'Hare International Airport (KORD) |
Arrival
| Time | N/A |
|---|---|
| Airport | Minneapolis–Saint Paul International Airport / Wold–Chamberlain Field (KMSP) |
| Time | Latitude | Longitude | Altitude | Speed | Heading |
|---|---|---|---|---|---|
| 2026-05-04 22:23 | 41.97653 | -87.89265 | 668 ft | 0 kts | 68° |
| 2026-05-04 23:05 | 41.97651 | -87.89270 | 667 ft | 2 kts | 68° |
| 2026-05-04 23:05 | 41.97644 | -87.89294 | 667 ft | 3 kts | 68° |
| 2026-05-04 23:06 | 41.97637 | -87.89319 | 666 ft | 3 kts | 68° |
| 2026-05-04 23:06 | 41.97629 | -87.89344 | 666 ft | 3 kts | 68° |
| 2026-05-04 23:06 | 41.97622 | -87.89370 | 666 ft | 3 kts | 68° |
| 2026-05-04 23:06 | 41.97617 | -87.89387 | 668 ft | 2 kts | 70° |
| 2026-05-04 23:07 | 41.97613 | -87.89409 | 666 ft | 3 kts | 111° |
| 2026-05-04 23:07 | 41.97623 | -87.89425 | 664 ft | 3 kts | 161° |
| 2026-05-04 23:07 | 41.97642 | -87.89431 | 666 ft | 2 kts | 178° |
| 2026-05-04 23:07 | 41.97651 | -87.89431 | 668 ft | 1 kts | 180° |
| 2026-05-04 23:08 | 41.97652 | -87.89431 | 668 ft | 0 kts | 180° |
| 2026-05-04 23:11 | 41.97646 | -87.89423 | 666 ft | 2 kts | 109° |
| 2026-05-04 23:11 | 41.97663 | -87.89422 | 668 ft | 3 kts | 351° |
| 2026-05-04 23:11 | 41.97720 | -87.89431 | 668 ft | 14 kts | 355° |
| 2026-05-04 23:11 | 41.97816 | -87.89434 | 668 ft | 14 kts | 0° |
| 2026-05-04 23:12 | 41.97905 | -87.89410 | 668 ft | 13 kts | 38° |
| 2026-05-04 23:12 | 41.97967 | -87.89323 | 668 ft | 13 kts | 51° |
| 2026-05-04 23:12 | 41.98006 | -87.89268 | 667 ft | 6 kts | 34° |
| 2026-05-04 23:12 | 41.98073 | -87.89289 | 668 ft | 14 kts | 320° |
| 2026-05-04 23:13 | 41.98139 | -87.89378 | 668 ft | 13 kts | 316° |
| 2026-05-04 23:13 | 41.98204 | -87.89463 | 668 ft | 13 kts | 316° |
| 2026-05-04 23:13 | 41.98267 | -87.89545 | 668 ft | 12 kts | 315° |
| 2026-05-04 23:13 | 41.98330 | -87.89622 | 670 ft | 11 kts | 321° |
| 2026-05-04 23:14 | 41.98378 | -87.89675 | 671 ft | 5 kts | 316° |
| 2026-05-04 23:14 | 41.98388 | -87.89734 | 670 ft | 13 kts | 272° |
| 2026-05-04 23:14 | 41.98388 | -87.90119 | 669 ft | 87 kts | 270° |
| 2026-05-04 23:14 | 41.98383 | -87.91354 | 717 ft | 171 kts | 265° |
| 2026-05-04 23:15 | 41.98332 | -87.93123 | 1250 ft | 211 kts | 264° |
| 2026-05-04 23:15 | 41.98510 | -87.95131 | 2324 ft | 216 kts | 289° |
| 2026-05-04 23:15 | 41.99438 | -87.96739 | 3459 ft | 229 kts | 316° |
| 2026-05-04 23:15 | 42.00997 | -87.97665 | 3855 ft | 266 kts | 346° |
| 2026-05-04 23:16 | 42.02896 | -87.97800 | 4511 ft | 277 kts | 354° |
| 2026-05-04 23:16 | 42.04845 | -87.97786 | 4954 ft | 281 kts | 356° |
| 2026-05-04 23:16 | 42.06769 | -87.97689 | 5032 ft | 279 kts | 357° |
| 2026-05-04 23:16 | 42.08723 | -87.97559 | 5026 ft | 282 kts | 357° |
| 2026-05-04 23:17 | 42.10700 | -87.97426 | 5007 ft | 284 kts | 357° |
| 2026-05-04 23:17 | 42.12668 | -87.97298 | 5015 ft | 283 kts | 357° |
| 2026-05-04 23:17 | 42.14634 | -87.97175 | 5030 ft | 282 kts | 357° |
| 2026-05-04 23:17 | 42.16604 | -87.97056 | 5347 ft | 284 kts | 357° |
| 2026-05-04 23:18 | 42.18549 | -87.96942 | 6365 ft | 284 kts | 356° |
| 2026-05-04 23:18 | 42.20523 | -87.96827 | 7432 ft | 283 kts | 356° |
| 2026-05-04 23:18 | 42.22520 | -87.96713 | 8401 ft | 288 kts | 356° |
| 2026-05-04 23:18 | 42.24534 | -87.96599 | 9450 ft | 291 kts | 356° |
| 2026-05-04 23:19 | 42.26568 | -87.96483 | 10401 ft | 294 kts | 356° |
| 2026-05-04 23:19 | 42.28618 | -87.96367 | 11346 ft | 297 kts | 355° |
| 2026-05-04 23:19 | 42.30681 | -87.96250 | 12257 ft | 301 kts | 355° |
| 2026-05-04 23:19 | 42.32795 | -87.96130 | 13193 ft | 305 kts | 355° |
| 2026-05-04 23:20 | 42.34940 | -87.96008 | 14039 ft | 310 kts | 355° |
| 2026-05-04 23:20 | 42.37108 | -87.95884 | 14875 ft | 314 kts | 355° |
| 2026-05-04 23:20 | 42.39313 | -87.95757 | 15711 ft | 319 kts | 355° |
| 2026-05-04 23:20 | 42.41557 | -87.95628 | 16508 ft | 324 kts | 355° |
| 2026-05-04 23:21 | 42.43808 | -87.95500 | 17282 ft | 330 kts | 355° |
| 2026-05-04 23:21 | 42.46114 | -87.95368 | 18048 ft | 335 kts | 355° |
| 2026-05-04 23:21 | 42.48446 | -87.95360 | 18758 ft | 334 kts | 349° |
| 2026-05-04 23:21 | 42.50760 | -87.95633 | 19527 ft | 333 kts | 346° |
| 2026-05-04 23:22 | 42.53076 | -87.95981 | 20282 ft | 336 kts | 345° |
| 2026-05-04 23:22 | 42.55413 | -87.96326 | 20988 ft | 340 kts | 346° |